sensor_id;sensor_type;location;lat;lon;timestamp;P1;durP1;ratioP1;P2;durP2;ratioP2
41219;SDS011;26951;47.338;9.196;2023-05-07T00:01:50;1.90;;;1.52;;
41219;SDS011;26951;47.338;9.196;2023-05-07T00:04:35;1.90;;;1.80;;
41219;SDS011;26951;47.338;9.196;2023-05-07T00:07:21;1.75;;;1.20;;
41219;SDS011;26951;47.338;9.196;2023-05-07T00:10:05;1.65;;;1.25;;
41219;SDS011;26951;47.338;9.196;2023-05-07T00:12:50;1.67;;;1.25;;
41219;SDS011;26951;47.338;9.196;2023-05-07T00:15:34;2.42;;;1.50;;
41219;SDS011;26951;47.338;9.196;2023-05-07T00:18:18;1.42;;;1.33;;
41219;SDS011;26951;47.338;9.196;2023-05-07T00:21:06;2.72;;;1.50;;
41219;SDS011;26951;47.338;9.196;2023-05-07T00:23:50;1.85;;;1.33;;
41219;SDS011;26951;47.338;9.196;2023-05-07T00:26:34;1.88;;;1.67;;
41219;SDS011;26951;47.338;9.196;2023-05-07T00:29:18;2.13;;;1.60;;
41219;SDS011;26951;47.338;9.196;2023-05-07T00:32:02;1.20;;;1.10;;
41219;SDS011;26951;47.338;9.196;2023-05-07T00:34:46;1.42;;;1.33;;
41219;SDS011;26951;47.338;9.196;2023-05-07T00:37:30;1.83;;;1.50;;
41219;SDS011;26951;47.338;9.196;2023-05-07T00:40:14;1.52;;;1.42;;
41219;SDS011;26951;47.338;9.196;2023-05-07T00:42:58;1.58;;;1.35;;
41219;SDS011;26951;47.338;9.196;2023-05-07T00:45:43;3.35;;;1.40;;
41219;SDS011;26951;47.338;9.196;2023-05-07T00:48:27;1.38;;;1.27;;
41219;SDS011;26951;47.338;9.196;2023-05-07T00:51:11;1.73;;;1.25;;
41219;SDS011;26951;47.338;9.196;2023-05-07T00:53:56;3.05;;;1.20;;
41219;SDS011;26951;47.338;9.196;2023-05-07T00:56:40;2.17;;;1.50;;
41219;SDS011;26951;47.338;9.196;2023-05-07T00:59:24;1.73;;;1.30;;
41219;SDS011;26951;47.338;9.196;2023-05-07T01:02:08;1.30;;;1.20;;
41219;SDS011;26951;47.338;9.196;2023-05-07T01:04:53;2.88;;;1.50;;
41219;SDS011;26951;47.338;9.196;2023-05-07T01:07:39;5.28;;;1.42;;
41219;SDS011;26951;47.338;9.196;2023-05-07T01:10:25;1.42;;;1.33;;
41219;SDS011;26951;47.338;9.196;2023-05-07T01:13:10;2.22;;;1.50;;
41219;SDS011;26951;47.338;9.196;2023-05-07T01:15:55;1.30;;;1.20;;
41219;SDS011;26951;47.338;9.196;2023-05-07T01:18:40;1.95;;;1.40;;
41219;SDS011;26951;47.338;9.196;2023-05-07T01:21:25;4.20;;;1.30;;
41219;SDS011;26951;47.338;9.196;2023-05-07T01:24:10;1.20;;;1.10;;
41219;SDS011;26951;47.338;9.196;2023-05-07T01:26:55;2.08;;;1.20;;
41219;SDS011;26951;47.338;9.196;2023-05-07T01:29:39;1.40;;;1.30;;
41219;SDS011;26951;47.338;9.196;2023-05-07T01:32:25;2.35;;;1.00;;
41219;SDS011;26951;47.338;9.196;2023-05-07T01:35:21;2.25;;;1.45;;
41219;SDS011;26951;47.338;9.196;2023-05-07T01:38:08;3.30;;;1.40;;
41219;SDS011;26951;47.338;9.196;2023-05-07T01:40:53;4.60;;;1.50;;
41219;SDS011;26951;47.338;9.196;2023-05-07T01:43:37;1.65;;;1.10;;
41219;SDS011;26951;47.338;9.196;2023-05-07T01:46:23;4.05;;;1.50;;
41219;SDS011;26951;47.338;9.196;2023-05-07T01:51:53;1.30;;;1.17;;
41219;SDS011;26951;47.338;9.196;2023-05-07T01:54:37;2.17;;;1.20;;
41219;SDS011;26951;47.338;9.196;2023-05-07T01:57:21;1.25;;;1.02;;
41219;SDS011;26951;47.338;9.196;2023-05-07T02:00:05;1.40;;;1.30;;
41219;SDS011;26951;47.338;9.196;2023-05-07T02:02:52;1.35;;;1.25;;
41219;SDS011;26951;47.338;9.196;2023-05-07T02:05:36;1.42;;;1.25;;
41219;SDS011;26951;47.338;9.196;2023-05-07T02:08:21;1.65;;;1.30;;
41219;SDS011;26951;47.338;9.196;2023-05-07T02:11:05;1.35;;;1.13;;
41219;SDS011;26951;47.338;9.196;2023-05-07T02:13:49;1.50;;;1.40;;
41219;SDS011;26951;47.338;9.196;2023-05-07T02:16:33;3.17;;;1.73;;
41219;SDS011;26951;47.338;9.196;2023-05-07T02:19:17;2.08;;;1.40;;
41219;SDS011;26951;47.338;9.196;2023-05-07T02:22:01;1.55;;;1.40;;
41219;SDS011;26951;47.338;9.196;2023-05-07T02:24:45;1.70;;;1.55;;
41219;SDS011;26951;47.338;9.196;2023-05-07T02:27:30;2.28;;;1.55;;
41219;SDS011;26951;47.338;9.196;2023-05-07T02:30:14;2.85;;;1.42;;
41219;SDS011;26951;47.338;9.196;2023-05-07T02:32:58;1.83;;;1.55;;
41219;SDS011;26951;47.338;9.196;2023-05-07T02:35:42;2.90;;;1.60;;
41219;SDS011;26951;47.338;9.196;2023-05-07T02:38:26;1.60;;;1.48;;
41219;SDS011;26951;47.338;9.196;2023-05-07T02:41:10;2.30;;;1.50;;
41219;SDS011;26951;47.338;9.196;2023-05-07T02:43:54;2.47;;;1.20;;
41219;SDS011;26951;47.338;9.196;2023-05-07T02:46:39;5.32;;;2.13;;
41219;SDS011;26951;47.338;9.196;2023-05-07T02:49:23;1.70;;;1.23;;
41219;SDS011;26951;47.338;9.196;2023-05-07T02:52:07;1.63;;;1.50;;
41219;SDS011;26951;47.338;9.196;2023-05-07T02:54:51;1.23;;;1.13;;
41219;SDS011;26951;47.338;9.196;2023-05-07T02:57:36;1.38;;;1.25;;
41219;SDS011;26951;47.338;9.196;2023-05-07T03:00:20;1.70;;;1.30;;
41219;SDS011;26951;47.338;9.196;2023-05-07T03:03:04;4.83;;;1.70;;
41219;SDS011;26951;47.338;9.196;2023-05-07T03:05:48;1.30;;;1.20;;
41219;SDS011;26951;47.338;9.196;2023-05-07T03:08:33;4.00;;;2.25;;
41219;SDS011;26951;47.338;9.196;2023-05-07T03:11:17;1.98;;;1.60;;
41219;SDS011;26951;47.338;9.196;2023-05-07T03:14:01;1.75;;;1.40;;
41219;SDS011;26951;47.338;9.196;2023-05-07T03:16:45;1.58;;;1.48;;
41219;SDS011;26951;47.338;9.196;2023-05-07T03:19:29;2.45;;;1.40;;
41219;SDS011;26951;47.338;9.196;2023-05-07T03:22:14;1.33;;;1.23;;
41219;SDS011;26951;47.338;9.196;2023-05-07T03:24:58;1.40;;;1.25;;
41219;SDS011;26951;47.338;9.196;2023-05-07T03:27:43;3.30;;;1.43;;
41219;SDS011;26951;47.338;9.196;2023-05-07T03:30:27;1.60;;;1.50;;
41219;SDS011;26951;47.338;9.196;2023-05-07T03:33:11;1.88;;;1.67;;
41219;SDS011;26951;47.338;9.196;2023-05-07T03:35:55;2.75;;;1.70;;
41219;SDS011;26951;47.338;9.196;2023-05-07T03:38:40;2.70;;;1.60;;
41219;SDS011;26951;47.338;9.196;2023-05-07T03:41:24;2.47;;;1.42;;
41219;SDS011;26951;47.338;9.196;2023-05-07T03:44:09;2.10;;;1.70;;
41219;SDS011;26951;47.338;9.196;2023-05-07T03:46:53;1.58;;;1.40;;
41219;SDS011;26951;47.338;9.196;2023-05-07T03:49:39;1.63;;;1.52;;
41219;SDS011;26951;47.338;9.196;2023-05-07T03:52:23;2.45;;;1.60;;
41219;SDS011;26951;47.338;9.196;2023-05-07T03:55:09;2.90;;;1.52;;
41219;SDS011;26951;47.338;9.196;2023-05-07T03:57:53;1.50;;;1.40;;
41219;SDS011;26951;47.338;9.196;2023-05-07T04:00:38;1.80;;;1.55;;
41219;SDS011;26951;47.338;9.196;2023-05-07T04:03:23;3.30;;;1.50;;
41219;SDS011;26951;47.338;9.196;2023-05-07T04:06:07;1.63;;;1.48;;
41219;SDS011;26951;47.338;9.196;2023-05-07T04:08:52;2.30;;;1.83;;
41219;SDS011;26951;47.338;9.196;2023-05-07T04:11:36;1.58;;;1.48;;
41219;SDS011;26951;47.338;9.196;2023-05-07T04:14:20;2.70;;;1.80;;
41219;SDS011;26951;47.338;9.196;2023-05-07T04:17:05;1.92;;;1.73;;
41219;SDS011;26951;47.338;9.196;2023-05-07T04:19:50;1.73;;;1.63;;
41219;SDS011;26951;47.338;9.196;2023-05-07T04:22:34;2.60;;;1.58;;
41219;SDS011;26951;47.338;9.196;2023-05-07T04:25:18;2.00;;;1.75;;
41219;SDS011;26951;47.338;9.196;2023-05-07T04:28:02;1.70;;;1.60;;
41219;SDS011;26951;47.338;9.196;2023-05-07T04:30:47;1.77;;;1.60;;
41219;SDS011;26951;47.338;9.196;2023-05-07T04:33:31;2.53;;;1.67;;
41219;SDS011;26951;47.338;9.196;2023-05-07T04:36:16;4.22;;;1.55;;
41219;SDS011;26951;47.338;9.196;2023-05-07T04:39:02;2.97;;;1.83;;
41219;SDS011;26951;47.338;9.196;2023-05-07T04:44:30;2.85;;;1.63;;
41219;SDS011;26951;47.338;9.196;2023-05-07T04:47:14;1.65;;;1.48;;
41219;SDS011;26951;47.338;9.196;2023-05-07T04:49:58;3.55;;;2.15;;
41219;SDS011;26951;47.338;9.196;2023-05-07T04:52:42;2.20;;;1.83;;
41219;SDS011;26951;47.338;9.196;2023-05-07T04:55:27;1.90;;;1.70;;
41219;SDS011;26951;47.338;9.196;2023-05-07T04:58:11;1.85;;;1.70;;
41219;SDS011;26951;47.338;9.196;2023-05-07T05:00:56;1.67;;;1.58;;
41219;SDS011;26951;47.338;9.196;2023-05-07T05:03:41;3.35;;;1.80;;
41219;SDS011;26951;47.338;9.196;2023-05-07T05:06:25;2.20;;;1.70;;
41219;SDS011;26951;47.338;9.196;2023-05-07T05:09:10;2.00;;;1.80;;
41219;SDS011;26951;47.338;9.196;2023-05-07T05:11:54;2.55;;;2.05;;
41219;SDS011;26951;47.338;9.196;2023-05-07T05:14:38;2.08;;;1.65;;
41219;SDS011;26951;47.338;9.196;2023-05-07T05:17:22;1.63;;;1.52;;
41219;SDS011;26951;47.338;9.196;2023-05-07T05:20:07;2.03;;;1.65;;
41219;SDS011;26951;47.338;9.196;2023-05-07T05:22:55;1.88;;;1.52;;
41219;SDS011;26951;47.338;9.196;2023-05-07T05:25:39;1.85;;;1.67;;
41219;SDS011;26951;47.338;9.196;2023-05-07T05:28:23;1.92;;;1.70;;
41219;SDS011;26951;47.338;9.196;2023-05-07T05:31:08;2.47;;;1.90;;
41219;SDS011;26951;47.338;9.196;2023-05-07T05:33:52;2.53;;;1.83;;
41219;SDS011;26951;47.338;9.196;2023-05-07T05:36:36;2.95;;;1.83;;
41219;SDS011;26951;47.338;9.196;2023-05-07T05:39:20;2.58;;;1.77;;
41219;SDS011;26951;47.338;9.196;2023-05-07T05:42:06;2.35;;;1.80;;
41219;SDS011;26951;47.338;9.196;2023-05-07T05:44:50;2.28;;;1.90;;
41219;SDS011;26951;47.338;9.196;2023-05-07T05:47:35;2.95;;;1.90;;
41219;SDS011;26951;47.338;9.196;2023-05-07T05:50:19;2.03;;;1.80;;
41219;SDS011;26951;47.338;9.196;2023-05-07T05:53:03;2.58;;;2.10;;
41219;SDS011;26951;47.338;9.196;2023-05-07T05:55:47;2.10;;;1.90;;
41219;SDS011;26951;47.338;9.196;2023-05-07T05:58:32;4.15;;;2.05;;
41219;SDS011;26951;47.338;9.196;2023-05-07T06:01:16;5.85;;;1.92;;
41219;SDS011;26951;47.338;9.196;2023-05-07T06:04:01;2.53;;;1.80;;
41219;SDS011;26951;47.338;9.196;2023-05-07T06:06:45;1.90;;;1.70;;
41219;SDS011;26951;47.338;9.196;2023-05-07T06:09:29;3.83;;;2.20;;
41219;SDS011;26951;47.338;9.196;2023-05-07T06:12:13;2.47;;;1.80;;
41219;SDS011;26951;47.338;9.196;2023-05-07T06:14:58;2.22;;;2.00;;
41219;SDS011;26951;47.338;9.196;2023-05-07T06:17:42;2.03;;;1.85;;
41219;SDS011;26951;47.338;9.196;2023-05-07T06:20:26;2.75;;;1.90;;
41219;SDS011;26951;47.338;9.196;2023-05-07T06:23:10;2.40;;;1.92;;
41219;SDS011;26951;47.338;9.196;2023-05-07T06:25:54;2.38;;;2.00;;
41219;SDS011;26951;47.338;9.196;2023-05-07T06:28:38;2.05;;;1.80;;
41219;SDS011;26951;47.338;9.196;2023-05-07T06:31:22;2.20;;;2.00;;
41219;SDS011;26951;47.338;9.196;2023-05-07T06:34:07;2.60;;;1.80;;
41219;SDS011;26951;47.338;9.196;2023-05-07T06:36:51;3.10;;;2.20;;
41219;SDS011;26951;47.338;9.196;2023-05-07T06:39:35;2.55;;;2.15;;
41219;SDS011;26951;47.338;9.196;2023-05-07T06:42:19;2.15;;;1.95;;
41219;SDS011;26951;47.338;9.196;2023-05-07T06:45:03;2.87;;;2.00;;
41219;SDS011;26951;47.338;9.196;2023-05-07T06:47:48;3.47;;;1.80;;
41219;SDS011;26951;47.338;9.196;2023-05-07T06:50:33;2.63;;;2.40;;
41219;SDS011;26951;47.338;9.196;2023-05-07T06:53:17;3.50;;;3.20;;
41219;SDS011;26951;47.338;9.196;2023-05-07T06:56:01;4.85;;;2.83;;
41219;SDS011;26951;47.338;9.196;2023-05-07T06:58:45;2.80;;;2.53;;
41219;SDS011;26951;47.338;9.196;2023-05-07T07:01:29;3.58;;;2.60;;
41219;SDS011;26951;47.338;9.196;2023-05-07T07:04:13;2.50;;;2.25;;
41219;SDS011;26951;47.338;9.196;2023-05-07T07:06:57;1.92;;;1.80;;
41219;SDS011;26951;47.338;9.196;2023-05-07T07:09:42;2.30;;;1.80;;
41219;SDS011;26951;47.338;9.196;2023-05-07T07:12:26;2.10;;;1.85;;
41219;SDS011;26951;47.338;9.196;2023-05-07T07:15:10;2.75;;;2.25;;
41219;SDS011;26951;47.338;9.196;2023-05-07T07:17:55;1.90;;;1.67;;
41219;SDS011;26951;47.338;9.196;2023-05-07T07:20:39;2.42;;;2.05;;
41219;SDS011;26951;47.338;9.196;2023-05-07T07:23:23;1.45;;;1.35;;
41219;SDS011;26951;47.338;9.196;2023-05-07T07:26:07;1.90;;;1.70;;
41219;SDS011;26951;47.338;9.196;2023-05-07T07:28:51;2.03;;;1.65;;
41219;SDS011;26951;47.338;9.196;2023-05-07T07:31:35;2.42;;;1.67;;
41219;SDS011;26951;47.338;9.196;2023-05-07T07:34:19;2.42;;;1.80;;
41219;SDS011;26951;47.338;9.196;2023-05-07T07:37:03;3.03;;;1.60;;
41219;SDS011;26951;47.338;9.196;2023-05-07T07:39:49;1.70;;;1.50;;
41219;SDS011;26951;47.338;9.196;2023-05-07T07:42:34;2.45;;;1.80;;
41219;SDS011;26951;47.338;9.196;2023-05-07T07:45:18;2.45;;;1.60;;
41219;SDS011;26951;47.338;9.196;2023-05-07T07:48:02;1.50;;;1.40;;
41219;SDS011;26951;47.338;9.196;2023-05-07T07:50:48;1.48;;;1.35;;
41219;SDS011;26951;47.338;9.196;2023-05-07T07:53:34;1.65;;;1.30;;
41219;SDS011;26951;47.338;9.196;2023-05-07T07:56:18;2.25;;;1.20;;
41219;SDS011;26951;47.338;9.196;2023-05-07T07:59:02;1.83;;;1.48;;
41219;SDS011;26951;47.338;9.196;2023-05-07T08:01:46;2.42;;;1.20;;
41219;SDS011;26951;47.338;9.196;2023-05-07T08:04:33;1.35;;;1.20;;
41219;SDS011;26951;47.338;9.196;2023-05-07T08:07:19;1.88;;;1.42;;
41219;SDS011;26951;47.338;9.196;2023-05-07T08:10:06;2.05;;;1.58;;
41219;SDS011;26951;47.338;9.196;2023-05-07T08:12:51;3.17;;;1.77;;
41219;SDS011;26951;47.338;9.196;2023-05-07T08:15:35;2.50;;;1.30;;
41219;SDS011;26951;47.338;9.196;2023-05-07T08:18:19;1.80;;;1.45;;
41219;SDS011;26951;47.338;9.196;2023-05-07T08:21:03;1.33;;;1.23;;
41219;SDS011;26951;47.338;9.196;2023-05-07T08:23:47;1.35;;;1.25;;
41219;SDS011;26951;47.338;9.196;2023-05-07T08:26:32;1.75;;;1.30;;
41219;SDS011;26951;47.338;9.196;2023-05-07T08:29:16;1.60;;;1.50;;
41219;SDS011;26951;47.338;9.196;2023-05-07T08:32:00;1.98;;;1.83;;
41219;SDS011;26951;47.338;9.196;2023-05-07T08:34:44;2.38;;;1.98;;
41219;SDS011;26951;47.338;9.196;2023-05-07T08:37:28;2.00;;;1.70;;
41219;SDS011;26951;47.338;9.196;2023-05-07T08:40:12;3.38;;;1.80;;
41219;SDS011;26951;47.338;9.196;2023-05-07T08:42:56;3.60;;;1.92;;
41219;SDS011;26951;47.338;9.196;2023-05-07T08:45:41;2.00;;;1.70;;
41219;SDS011;26951;47.338;9.196;2023-05-07T08:48:29;2.30;;;1.50;;
41219;SDS011;26951;47.338;9.196;2023-05-07T08:51:15;2.08;;;1.60;;
41219;SDS011;26951;47.338;9.196;2023-05-07T08:54:01;2.78;;;2.20;;
41219;SDS011;26951;47.338;9.196;2023-05-07T08:56:45;5.03;;;2.35;;
41219;SDS011;26951;47.338;9.196;2023-05-07T08:59:29;3.08;;;2.03;;
41219;SDS011;26951;47.338;9.196;2023-05-07T09:02:14;3.70;;;2.00;;
41219;SDS011;26951;47.338;9.196;2023-05-07T09:04:59;2.85;;;2.10;;
41219;SDS011;26951;47.338;9.196;2023-05-07T09:07:44;2.20;;;2.00;;
41219;SDS011;26951;47.338;9.196;2023-05-07T09:10:29;2.55;;;2.35;;
41219;SDS011;26951;47.338;9.196;2023-05-07T09:13:16;3.13;;;2.38;;
41219;SDS011;26951;47.338;9.196;2023-05-07T09:16:11;2.72;;;2.08;;
41219;SDS011;26951;47.338;9.196;2023-05-07T09:18:57;5.50;;;3.40;;
41219;SDS011;26951;47.338;9.196;2023-05-07T09:21:42;6.15;;;2.65;;
41219;SDS011;26951;47.338;9.196;2023-05-07T09:24:26;3.15;;;2.50;;
41219;SDS011;26951;47.338;9.196;2023-05-07T09:27:12;3.40;;;2.72;;
41219;SDS011;26951;47.338;9.196;2023-05-07T09:29:56;3.97;;;2.03;;
41219;SDS011;26951;47.338;9.196;2023-05-07T09:32:40;2.30;;;1.85;;
41219;SDS011;26951;47.338;9.196;2023-05-07T09:35:25;2.67;;;1.80;;
41219;SDS011;26951;47.338;9.196;2023-05-07T09:38:12;3.38;;;1.90;;
41219;SDS011;26951;47.338;9.196;2023-05-07T09:41:03;2.03;;;1.70;;
41219;SDS011;26951;47.338;9.196;2023-05-07T09:43:54;3.45;;;1.80;;
41219;SDS011;26951;47.338;9.196;2023-05-07T09:46:39;2.15;;;1.90;;
41219;SDS011;26951;47.338;9.196;2023-05-07T09:49:28;3.25;;;2.00;;
41219;SDS011;26951;47.338;9.196;2023-05-07T09:52:16;4.53;;;1.95;;
41219;SDS011;26951;47.338;9.196;2023-05-07T09:55:00;2.95;;;1.88;;
41219;SDS011;26951;47.338;9.196;2023-05-07T09:57:46;4.95;;;2.42;;
41219;SDS011;26951;47.338;9.196;2023-05-07T10:00:36;2.78;;;1.95;;
41219;SDS011;26951;47.338;9.196;2023-05-07T10:03:24;1.67;;;1.58;;
41219;SDS011;26951;47.338;9.196;2023-05-07T10:06:11;1.85;;;1.70;;
41219;SDS011;26951;47.338;9.196;2023-05-07T10:08:56;3.03;;;2.03;;
41219;SDS011;26951;47.338;9.196;2023-05-07T10:11:41;2.38;;;1.95;;
41219;SDS011;26951;47.338;9.196;2023-05-07T10:14:26;2.65;;;1.90;;
41219;SDS011;26951;47.338;9.196;2023-05-07T10:17:12;1.80;;;1.60;;
41219;SDS011;26951;47.338;9.196;2023-05-07T10:19:59;1.90;;;1.65;;
41219;SDS011;26951;47.338;9.196;2023-05-07T10:22:44;2.50;;;1.70;;
41219;SDS011;26951;47.338;9.196;2023-05-07T10:25:31;2.60;;;1.98;;
41219;SDS011;26951;47.338;9.196;2023-05-07T10:28:16;1.73;;;1.63;;
41219;SDS011;26951;47.338;9.196;2023-05-07T10:34:34;2.10;;;1.52;;
41219;SDS011;26951;47.338;9.196;2023-05-07T10:37:21;2.45;;;1.60;;
41219;SDS011;26951;47.338;9.196;2023-05-07T10:40:06;2.30;;;1.60;;
41219;SDS011;26951;47.338;9.196;2023-05-07T10:42:58;2.08;;;1.88;;
41219;SDS011;26951;47.338;9.196;2023-05-07T10:45:44;2.50;;;1.80;;
41219;SDS011;26951;47.338;9.196;2023-05-07T10:52:10;3.00;;;1.77;;
41219;SDS011;26951;47.338;9.196;2023-05-07T11:01:11;1.85;;;1.50;;
41219;SDS011;26951;47.338;9.196;2023-05-07T11:04:15;1.95;;;1.42;;
41219;SDS011;26951;47.338;9.196;2023-05-07T11:10:01;2.25;;;1.83;;
41219;SDS011;26951;47.338;9.196;2023-05-07T11:12:48;1.70;;;1.60;;
41219;SDS011;26951;47.338;9.196;2023-05-07T11:15:37;1.75;;;1.33;;
41219;SDS011;26951;47.338;9.196;2023-05-07T11:18:23;1.77;;;1.67;;
41219;SDS011;26951;47.338;9.196;2023-05-07T11:21:07;1.85;;;1.60;;
41219;SDS011;26951;47.338;9.196;2023-05-07T11:23:55;2.10;;;1.80;;
41219;SDS011;26951;47.338;9.196;2023-05-07T11:26:44;2.78;;;1.50;;
41219;SDS011;26951;47.338;9.196;2023-05-07T11:29:29;1.70;;;1.60;;
41219;SDS011;26951;47.338;9.196;2023-05-07T11:32:13;1.40;;;1.30;;
41219;SDS011;26951;47.338;9.196;2023-05-07T11:34:59;2.03;;;1.30;;
41219;SDS011;26951;47.338;9.196;2023-05-07T11:37:44;1.90;;;1.52;;
41219;SDS011;26951;47.338;9.196;2023-05-07T11:43:13;2.50;;;2.00;;
41219;SDS011;26951;47.338;9.196;2023-05-07T11:48:55;1.65;;;1.48;;
41219;SDS011;26951;47.338;9.196;2023-05-07T11:51:39;2.20;;;1.58;;
41219;SDS011;26951;47.338;9.196;2023-05-07T11:54:25;1.52;;;1.35;;
41219;SDS011;26951;47.338;9.196;2023-05-07T11:57:14;1.90;;;1.70;;
41219;SDS011;26951;47.338;9.196;2023-05-07T11:59:59;1.92;;;1.42;;
41219;SDS011;26951;47.338;9.196;2023-05-07T12:02:45;1.73;;;1.63;;
41219;SDS011;26951;47.338;9.196;2023-05-07T12:05:29;1.65;;;1.55;;
41219;SDS011;26951;47.338;9.196;2023-05-07T12:08:14;2.25;;;1.80;;
41219;SDS011;26951;47.338;9.196;2023-05-07T12:11:02;2.72;;;1.60;;
41219;SDS011;26951;47.338;9.196;2023-05-07T12:13:46;1.88;;;1.48;;
41219;SDS011;26951;47.338;9.196;2023-05-07T12:16:30;2.53;;;2.00;;
41219;SDS011;26951;47.338;9.196;2023-05-07T12:19:15;2.33;;;1.80;;
41219;SDS011;26951;47.338;9.196;2023-05-07T12:24:46;2.50;;;2.28;;
41219;SDS011;26951;47.338;9.196;2023-05-07T12:27:31;2.50;;;2.03;;
41219;SDS011;26951;47.338;9.196;2023-05-07T12:30:15;3.00;;;2.33;;
41219;SDS011;26951;47.338;9.196;2023-05-07T12:33:01;2.60;;;2.40;;
41219;SDS011;26951;47.338;9.196;2023-05-07T12:35:45;2.90;;;2.30;;
41219;SDS011;26951;47.338;9.196;2023-05-07T12:38:34;2.90;;;2.60;;
41219;SDS011;26951;47.338;9.196;2023-05-07T12:41:22;3.42;;;2.88;;
41219;SDS011;26951;47.338;9.196;2023-05-07T12:44:10;2.60;;;2.40;;
41219;SDS011;26951;47.338;9.196;2023-05-07T12:46:55;2.70;;;2.42;;
41219;SDS011;26951;47.338;9.196;2023-05-07T12:49:40;3.97;;;2.30;;
41219;SDS011;26951;47.338;9.196;2023-05-07T12:52:24;4.00;;;2.80;;
41219;SDS011;26951;47.338;9.196;2023-05-07T12:55:11;2.90;;;2.60;;
41219;SDS011;26951;47.338;9.196;2023-05-07T12:58:00;2.50;;;2.30;;
41219;SDS011;26951;47.338;9.196;2023-05-07T13:00:45;3.17;;;2.47;;
41219;SDS011;26951;47.338;9.196;2023-05-07T13:03:32;2.83;;;2.47;;
41219;SDS011;26951;47.338;9.196;2023-05-07T13:06:18;3.03;;;2.17;;
41219;SDS011;26951;47.338;9.196;2023-05-07T13:09:02;4.63;;;2.67;;
41219;SDS011;26951;47.338;9.196;2023-05-07T13:11:48;3.55;;;2.63;;
41219;SDS011;26951;47.338;9.196;2023-05-07T13:14:32;4.00;;;3.33;;
41219;SDS011;26951;47.338;9.196;2023-05-07T13:17:16;5.10;;;3.60;;
41219;SDS011;26951;47.338;9.196;2023-05-07T13:20:02;4.00;;;2.72;;
41219;SDS011;26951;47.338;9.196;2023-05-07T13:22:47;3.20;;;2.65;;
41219;SDS011;26951;47.338;9.196;2023-05-07T13:25:31;2.97;;;2.78;;
41219;SDS011;26951;47.338;9.196;2023-05-07T13:28:15;2.87;;;2.40;;
41219;SDS011;26951;47.338;9.196;2023-05-07T13:31:00;5.28;;;3.00;;
41219;SDS011;26951;47.338;9.196;2023-05-07T13:33:44;2.78;;;2.58;;
41219;SDS011;26951;47.338;9.196;2023-05-07T13:36:29;3.63;;;2.87;;
41219;SDS011;26951;47.338;9.196;2023-05-07T13:39:16;4.18;;;2.35;;
41219;SDS011;26951;47.338;9.196;2023-05-07T13:42:00;3.03;;;2.67;;
41219;SDS011;26951;47.338;9.196;2023-05-07T13:44:44;6.28;;;2.90;;
41219;SDS011;26951;47.338;9.196;2023-05-07T13:47:29;4.13;;;3.20;;
41219;SDS011;26951;47.338;9.196;2023-05-07T13:50:13;3.78;;;3.15;;
41219;SDS011;26951;47.338;9.196;2023-05-07T13:52:57;3.20;;;2.90;;
41219;SDS011;26951;47.338;9.196;2023-05-07T13:55:41;4.07;;;3.13;;
41219;SDS011;26951;47.338;9.196;2023-05-07T13:58:25;3.20;;;2.90;;
41219;SDS011;26951;47.338;9.196;2023-05-07T14:01:09;4.15;;;3.10;;
41219;SDS011;26951;47.338;9.196;2023-05-07T14:03:53;3.60;;;3.30;;
41219;SDS011;26951;47.338;9.196;2023-05-07T14:06:39;3.53;;;3.22;;
41219;SDS011;26951;47.338;9.196;2023-05-07T14:09:23;3.15;;;2.83;;
41219;SDS011;26951;47.338;9.196;2023-05-07T14:12:07;3.90;;;2.88;;
41219;SDS011;26951;47.338;9.196;2023-05-07T14:14:51;4.00;;;3.42;;
41219;SDS011;26951;47.338;9.196;2023-05-07T14:17:35;5.13;;;3.17;;
41219;SDS011;26951;47.338;9.196;2023-05-07T14:20:20;3.75;;;3.45;;
41219;SDS011;26951;47.338;9.196;2023-05-07T14:23:04;3.40;;;3.08;;
41219;SDS011;26951;47.338;9.196;2023-05-07T14:25:48;6.15;;;4.18;;
41219;SDS011;26951;47.338;9.196;2023-05-07T14:28:32;9.17;;;5.43;;
41219;SDS011;26951;47.338;9.196;2023-05-07T14:31:16;10.85;;;4.65;;
41219;SDS011;26951;47.338;9.196;2023-05-07T14:34:00;7.03;;;3.97;;
41219;SDS011;26951;47.338;9.196;2023-05-07T14:36:45;6.75;;;3.83;;
41219;SDS011;26951;47.338;9.196;2023-05-07T14:39:29;6.00;;;4.13;;
41219;SDS011;26951;47.338;9.196;2023-05-07T14:42:13;7.90;;;4.57;;
41219;SDS011;26951;47.338;9.196;2023-05-07T14:44:58;6.47;;;4.50;;
41219;SDS011;26951;47.338;9.196;2023-05-07T14:47:42;7.43;;;4.22;;
41219;SDS011;26951;47.338;9.196;2023-05-07T14:50:26;5.57;;;4.43;;
41219;SDS011;26951;47.338;9.196;2023-05-07T14:53:10;6.18;;;4.45;;
41219;SDS011;26951;47.338;9.196;2023-05-07T14:55:55;7.05;;;5.03;;
41219;SDS011;26951;47.338;9.196;2023-05-07T14:58:39;5.43;;;4.85;;
41219;SDS011;26951;47.338;9.196;2023-05-07T15:01:24;5.82;;;4.90;;
41219;SDS011;26951;47.338;9.196;2023-05-07T15:04:09;6.70;;;5.47;;
41219;SDS011;26951;47.338;9.196;2023-05-07T15:06:53;6.60;;;5.90;;
41219;SDS011;26951;47.338;9.196;2023-05-07T15:09:37;8.05;;;6.47;;
41219;SDS011;26951;47.338;9.196;2023-05-07T15:12:21;7.25;;;6.35;;
41219;SDS011;26951;47.338;9.196;2023-05-07T15:15:05;6.47;;;5.82;;
41219;SDS011;26951;47.338;9.196;2023-05-07T15:17:50;6.45;;;5.85;;
41219;SDS011;26951;47.338;9.196;2023-05-07T15:20:35;7.45;;;6.45;;
41219;SDS011;26951;47.338;9.196;2023-05-07T15:23:20;7.32;;;6.50;;
41219;SDS011;26951;47.338;9.196;2023-05-07T15:26:04;7.82;;;6.07;;
41219;SDS011;26951;47.338;9.196;2023-05-07T15:28:49;6.78;;;5.97;;
41219;SDS011;26951;47.338;9.196;2023-05-07T15:31:33;7.93;;;6.60;;
41219;SDS011;26951;47.338;9.196;2023-05-07T15:34:17;5.65;;;5.15;;
41219;SDS011;26951;47.338;9.196;2023-05-07T15:37:02;7.70;;;6.63;;
41219;SDS011;26951;47.338;9.196;2023-05-07T15:39:46;7.10;;;6.05;;
41219;SDS011;26951;47.338;9.196;2023-05-07T15:42:30;7.93;;;6.25;;
41219;SDS011;26951;47.338;9.196;2023-05-07T15:45:14;9.65;;;6.50;;
41219;SDS011;26951;47.338;9.196;2023-05-07T15:47:58;7.55;;;6.57;;
41219;SDS011;26951;47.338;9.196;2023-05-07T15:50:42;7.45;;;6.22;;
41219;SDS011;26951;47.338;9.196;2023-05-07T15:53:26;6.40;;;5.10;;
41219;SDS011;26951;47.338;9.196;2023-05-07T15:56:10;5.38;;;4.80;;
41219;SDS011;26951;47.338;9.196;2023-05-07T15:58:55;5.43;;;4.93;;
41219;SDS011;26951;47.338;9.196;2023-05-07T16:01:40;6.05;;;5.45;;
41219;SDS011;26951;47.338;9.196;2023-05-07T16:04:24;6.03;;;5.43;;
41219;SDS011;26951;47.338;9.196;2023-05-07T16:07:10;5.65;;;5.00;;
41219;SDS011;26951;47.338;9.196;2023-05-07T16:09:54;5.20;;;4.63;;
41219;SDS011;26951;47.338;9.196;2023-05-07T16:12:38;5.32;;;4.78;;
41219;SDS011;26951;47.338;9.196;2023-05-07T16:15:22;6.53;;;4.35;;
41219;SDS011;26951;47.338;9.196;2023-05-07T16:18:07;5.30;;;4.80;;
41219;SDS011;26951;47.338;9.196;2023-05-07T16:20:51;6.00;;;4.80;;
41219;SDS011;26951;47.338;9.196;2023-05-07T16:23:36;4.75;;;4.30;;
41219;SDS011;26951;47.338;9.196;2023-05-07T16:26:21;6.70;;;5.05;;
41219;SDS011;26951;47.338;9.196;2023-05-07T16:29:05;6.75;;;5.28;;
41219;SDS011;26951;47.338;9.196;2023-05-07T16:31:49;5.18;;;4.68;;
41219;SDS011;26951;47.338;9.196;2023-05-07T16:34:36;5.68;;;5.10;;
41219;SDS011;26951;47.338;9.196;2023-05-07T16:37:20;4.70;;;4.03;;
41219;SDS011;26951;47.338;9.196;2023-05-07T16:40:05;4.22;;;3.60;;
41219;SDS011;26951;47.338;9.196;2023-05-07T16:42:50;3.27;;;2.97;;
41219;SDS011;26951;47.338;9.196;2023-05-07T16:45:34;4.03;;;2.38;;
41219;SDS011;26951;47.338;9.196;2023-05-07T16:48:18;3.28;;;1.90;;
41219;SDS011;26951;47.338;9.196;2023-05-07T16:51:02;1.77;;;1.52;;
41219;SDS011;26951;47.338;9.196;2023-05-07T16:53:47;4.43;;;2.50;;
41219;SDS011;26951;47.338;9.196;2023-05-07T16:56:31;2.40;;;2.15;;
41219;SDS011;26951;47.338;9.196;2023-05-07T16:59:15;1.98;;;1.67;;
41219;SDS011;26951;47.338;9.196;2023-05-07T17:02:00;2.13;;;1.80;;
41219;SDS011;26951;47.338;9.196;2023-05-07T17:04:44;1.98;;;1.50;;